Главная страница
METAR-TAF:

METAR-TAF

Аэропорты :

Уйташ

Махачкала, Россия

широта: 42-49-01N, долгота: 047-39-08E, высота над уровнем моря: 4 м

Текущие метеонаблюдения

Эта сводка был подготовлена 25 минут назад, в 02:30 UTC
Ветер 6 Узел от южный
Температура 19°C
Влажность 73%
Давление 1015 hPa
Видимость 10 км и более

METAR: URML 210230Z 19003MPS 9999 NSC 19/14 Q1015 R14/01//70 NOSIG RMK QFE761/1015

Время: 05:55 (02:55 UTC)

Прогноз

Эта сводка был подготовлена 55 минут назад, в 02:00 UTC
Прогноз действительный с 21-го 03 UTC до 21-го 12 UTC
Ветер 12 Узел от юго-восточный с порывами до 25 Узел
Видимость 10 км и более
Отдельные облака на высоте 5000 фута
временами
С 21-го 03 UTC до 21-го 05 UTC
Ветер 6 Узел от юго-юго-восточный с порывами до 19 Узел

TAF: URML 210200Z 2103/2112 13006G13MPS 9999 SCT050 TEMPO 2103/2105 16003G10MPS

Метеонаблюдения и прогнозы для более 4000 аэропортов (сводки METAR и TAF).

Имеющиеся станции представлены на карте желтыми и красными точками.

Чтобы увидеть название станции, наведите на нее мышь.

Затем щелкните, чтобы увидеть метеонаблюдения и метеопрогнозы.

Управление картой: чтобы увеличить масштаб, щелкните зеленые кнопки с черным крестиком; чтобы уменьшить масштаб, щелкните зеленую кнопку с тире; для просмотра соседних карт щелкайте зеленые стрелки.


METAR-TAF: